Logo AVAMET
Benvolgut visitant, si us plau, ingressa Recuperar contrasenya

Pego Monte-Pego

Dades diàries. Acumulats / Últims 30 dies disponibles

Data Temperatura (°C) Humitat rel. (%) Pressió rel. (hPa) Vent (km/h) Precipitació
Mínima Mitjana Màxima Amplitud
tèrmica
Mínima Mitjana Màxima Mínima Mitjana Màxima Predom. Mitjana Ràfega
màxima
Total
(mm)
Índex-n
Mínima Mitjana Màxima Mínima Mitjana Màxima n
0 a 1
P0 max
mm 5'
Dades mensuals acumulades fins l'últim dia disponible
05/2019 11,1 15,4 22,0 19,7 20,0 25,3 32,9 21,8 25 59 95 1.002 1.015 1.025   4,4 44,4 10,7
Dades anuals acumulades fins l'últim dia disponible
2019 5,9 11,7 22,0 15,3 11,7 20,0 32,9 27,0 12 53 98 993 1.018 1.035   4,6 51,8 261,3
Últims 30 dies disponibles
25-05-2019 14,9     17,1     21,7 6,8 51 73 95 1.015 1.017 1.019 SO 3,8 15,5 6,7
24-05-2019 15,6     18,2     20,0 4,4 61 75 88 1.013 1.015 1.016 OSO 1,7 9,6 2,5
23-05-2019 16,1     22,1     29,9 13,8 25 55 76 1.013 1.017 1.019 S 4,4 26,3 0,0
22-05-2019 15,2     20,5     27,0 11,8 34 64 80 1.016 1.018 1.019 SSE 4,5 22,2 0,0
21-05-2019 16,1     18,9     24,6 8,5 45 71 83 1.014 1.015 1.018 SSO 4,1 33,3 0,5
20-05-2019 15,2     19,8     25,6 10,4 36 49 60 1.011 1.012 1.014 S 5,0 22,9 0,0
19-05-2019 13,9     19,0     25,2 11,3 32 54 77 1.009 1.010 1.012 S 3,8 20,4 0,0
18-05-2019 15,5     17,9     20,9 5,4 39 49 63 1.008 1.009 1.010 SSO 3,7 13,7 0,0
17-05-2019 16,3     20,1     25,4 9,1 26 46 78 1.002 1.005 1.010 O 9,7 44,4 0,0
16-05-2019 16,3     19,6     24,8 8,5 50 65 77 1.005 1.011 1.016 SSO 5,9 25,9 0,0
15-05-2019 16,5     20,1     24,2 7,7 34 62 78 1.011 1.013 1.016 S 3,3 14,8 0,0
14-05-2019 14,4     20,5     27,8 13,4 27 51 73 1.013 1.018 1.022 S 5,7 24,4 0,0
13-05-2019 15,0     20,0     25,4 10,4 31 56 74 1.019 1.020 1.022 S 4,2 14,8 0,0
12-05-2019 16,1     20,4     25,9 9,8 46 65 84 1.019 1.023 1.025 S 3,3 17,2 0,0
11-05-2019 17,9     22,6     27,5 9,6 30 55 69 1.015 1.019 1.024 SSO 2,8 14,8 0,0
10-05-2019 22,0     27,1     32,9 10,9 29 39 51 1.012 1.013 1.015 SO 5,1 20,9 0,0
09-05-2019 20,8     24,9     29,8 9,0 34 43 54 1.011 1.013 1.015 ONO 6,1 28,3 0,0
08-05-2019 14,5     23,1     30,9 16,4 28 54 91 1.010 1.012 1.015 SO 5,6 29,8 0,0
07-05-2019 15,1     20,0     27,2 12,1 41 67 86 1.013 1.017 1.019 S 3,9 24,1 0,0
06-05-2019 13,0     17,1     24,0 11,0 52 70 81 1.016 1.018 1.020 SSO 3,3 20,4 0,0
05-05-2019 14,3     17,5     22,2 7,9 38 55 78 1.011 1.015 1.018 SO 4,7 18,5 0,0
04-05-2019 11,1     16,7     22,4 11,3 40 57 86 1.010 1.012 1.014 SSO 5,3 28,3 0,0
03-05-2019 11,6     15,3     20,8 9,2 59 70 84 1.010 1.012 1.015 S 3,4 13,7 1,0
02-05-2019 14,6     16,8     20,6 6,0 54 69 84 1.014 1.015 1.017 S 2,7 10,0 0,0
01-05-2019 13,2     17,9     24,9 11,7 35 62 84 1.012 1.015 1.017 SSO 4,6 20,9 0,0
30-04-2019 15,2     18,5     24,1 8,9 49 66 84 1.015 1.017 1.019 S 4,6 24,8 0,0
29-04-2019 13,5     17,0     21,9 8,4 56 71 85 1.016 1.019 1.021 S 5,2 22,2 0,0
28-04-2019 14,0     18,3     24,4 10,4 35 60 75 1.019 1.022 1.025 S 2,6 13,7 0,0
27-04-2019 13,4     18,5     24,0 10,6 34 46 58 1.023 1.025 1.027 S 4,6 19,1 0,0
26-04-2019 12,5     17,9     23,5 11,0 30 41 52 1.018 1.022 1.024 SO 7,1 24,8 0,0
Últims 13 mesos disponibles
04/2019 9,9 12,7 15,5 16,0 13,5 20,7 30,4 20,5 30 61 94 999 1.013 1.025 S 5,3 39,2 175,1
03/2019 7,8 11,5 16,6 15,4 13,4 20,6 28,9 21,1 27 50 89 1.010 1.023 1.029 OSO 4,0 37,7 70,8
02/2019 6,8 9,6 13,2 13,4 12,4 17,9 24,3 17,5 26 52 75 995 1.024 1.033 SSO 4,2 51,8 0,0
01/2019 5,9 9,7 13,5 12,5 11,7 16,1 20,8 14,9 27 46 69 1.003 1.018 1.029 S 5,1 48,1 4,7
12/2018 8,8 11,0 14,9 13,1 12,8 16,0 17,8 9,0 37 68 82 1.020 1.027 1.029 S 2,1 19,4 6,9
11/2018 10,3 13,5 16,6 15,9 16,4 19,1 23,2 12,9 46 62 91 1.005 1.016 1.023 O 4,4 45,0 6,2
10/2018 8,9 16,6 20,5 19,5 14,8 23,8 30,6 21,7 36 63 86 999 1.014 1.025 4,0 46,3 130,4
09/2018 18,2 21,8 24,3 25,0 24,4 29,6 34,7 16,5 46 69 84 1.013 1.020 1.028 3,4 27,8 56,5
08/2018 20,8 24,1 27,3 28,0 26,6 33,4 39,7 18,9 35 60 81 1.013 1.017 1.023 4,2 37,0 61,1
07/2018 22,1 24,0 27,3 28,4 28,0 33,8 38,6 16,5 29 56 76 1.010 1.016 1.020 4,5 33,9 2,0
06/2018 15,9 20,1 22,8 24,7 24,5 30,3 35,4 19,5 38 55 75 1.011 1.016 1.022 4,1 31,6 39,4
05/2018 10,5 15,9 20,0 20,2 19,0 25,9 30,9 20,4 32 56 76 1.009 1.015 1.018 4,1 28,3 3,6
04/2018 9,3 13,4 16,1 17,1 15,2 21,6 31,1 21,8 28 55 84 996 1.014 1.025 5,1 48,1 7,1
Tots els anys disponibles
2018 4,3 16,3 27,3 19,9 7,4 24,4 39,7 35,4 25 57 91 992 1.016 1.035 SSO 4,2 56,4 486,8
2017 0,1 15,7 26,3 19,5 5,8 23,4 39,5 39,4 26 60 92 999 1.019 1.035 SO 0,1 85,0 663,2
2016 0,0 17,0 28,8 21,0 12,1 25,1 41,1 41,1 32 62 93 997 1.017 1.036 50,0 441,5
2015
Temperatura (°C)
Humitat relativa (%)
Velocitat del vent i ràfega màxima (km/h)
Direcció del vent (°)
Pressió (hPa)
Precipitació (mm)
Nota sobre les dades: s'avisa a l'usuari de la provisionalitat i no oficialitat d'aquestes dades
Logo AVAMET blanc
Web allotjada a Sollutia
Llicència de Creative CommonsLa web d'AVAMET i els seus continguts estan subjectes a una llicència de
Reconeixement - No Comercial - Compartir igual
Properes estacions: Altea - Club Nàutic d'Altea (Soci), Ontinyent - El Pilar (Soci), Ares del Maestrat (Ajuntament Soci), Catadau - L'Altet (Inforatge)     - - - - -      Últimes estacions: Asp - Poliesportiu (Soci), Jacarilla - centro (MeteOrihuela), Elx - Maitino/Vallverda/Velarde/Matola/Ferriol (Soci TiempoElche.com), Orihuela - Playa Flamenca (MeteOrihuela), - - -